Cunningham, Washington
Current Conditions -  °F | °C
As of 8:52 PM on Tuesday 25 Nov 2014 (Local Time) from KMWH Reporting Station
Haze Haze  
Wind Chill: 31°   Ceiling: 2000
Heat Index: 37°   Visibility: 3mi
Dew Point: 36°   Wind: 8mph
Humidity: 96%   Direction: 360°N
Pressure: 30.22"   Gusts: NA
Location:  46.82°N, 118.81°W
Report Text: KMWH 260452Z 36007KT 3SM BR OVC020 03/02 A3022 RMK AO2 SLP243 T00280022 $
Loading
Personal Weather Stations






























Interactive Weather Map New forecast layout! Learn more

10-Day Weather Forecast

Advertisements
Track Severe Weather on mobile